Time;durP1;ratioP1;P1;durP2;ratioP2;P2;SDS_P1;SDS_P2;PMS_P1;PMS_P2;Temp;Humidity;BMP_temperature;BMP_pressure;BME280_temperature;BME280_humidity;BME280_pressure;Samples;Min_cycle;Max_cycle;Signal;HPM_P1;HPM_P2
2024/02/19 00:01:30;;;;;;;21.55;3.60;;;;;;;10.17;100.00;102301.66;5020033;28;20448;-70
2024/02/19 00:03:56;;;;;;;21.05;3.20;;;;;;;10.18;100.00;102296.94;5054346;28;20029;-70
2024/02/19 00:06:24;;;;;;;17.83;2.67;;;;;;;10.16;100.00;102290.78;5053215;28;20044;-70
2024/02/19 00:08:52;;;;;;;18.45;3.00;;;;;;;10.17;100.00;102293.31;5053186;28;20422;-71
2024/02/19 00:11:18;;;;;;;15.68;2.70;;;;;;;10.17;100.00;102287.78;5036907;28;20478;-70
2024/02/19 00:13:44;;;;;;;18.92;2.88;;;;;;;10.16;100.00;102290.78;5052824;28;20029;-70
2024/02/19 00:16:10;;;;;;;18.38;3.35;;;;;;;10.13;100.00;102280.16;5053170;28;20036;-70
2024/02/19 00:18:35;;;;;;;20.77;3.67;;;;;;;10.17;100.00;102286.91;5035690;28;20032;-71
2024/02/19 00:21:01;;;;;;;16.73;2.45;;;;;;;10.18;100.00;102291.38;5020226;28;20033;-71
2024/02/19 00:23:27;;;;;;;22.27;2.38;;;;;;;10.15;100.00;102291.88;5036507;28;20556;-70
2024/02/19 00:25:53;;;;;;;23.77;3.50;;;;;;;10.17;100.00;102298.00;5036406;28;20460;-70
2024/02/19 00:28:18;;;;;;;19.92;2.78;;;;;;;10.16;100.00;102297.16;5036139;28;20044;-70
2024/02/19 00:30:44;;;;;;;19.05;2.58;;;;;;;10.14;100.00;102301.28;5036348;28;20117;-70
2024/02/19 00:33:09;;;;;;;17.10;2.42;;;;;;;10.16;100.00;102299.94;5023456;28;20029;-70
2024/02/19 00:35:35;;;;;;;19.35;3.10;;;;;;;10.17;100.00;102307.19;5040019;28;20042;-70
2024/02/19 00:38:00;;;;;;;22.45;2.30;;;;;;;10.16;100.00;102307.44;5039953;28;20039;-70
2024/02/19 00:40:26;;;;;;;20.85;2.47;;;;;;;10.18;100.00;102308.03;5023487;28;20029;-70
2024/02/19 00:42:51;;;;;;;17.38;2.20;;;;;;;10.17;100.00;102315.53;5056534;28;20040;-70
2024/02/19 00:45:17;;;;;;;22.25;2.78;;;;;;;10.14;100.00;102310.47;5031933;28;20021;-70
2024/02/19 00:47:42;;;;;;;14.73;2.63;;;;;;;10.16;100.00;102313.81;5059317;28;20049;-70
2024/02/19 00:50:08;;;;;;;25.48;3.33;;;;;;;10.15;100.00;102306.59;5025254;28;20041;-70
2024/02/19 00:52:34;;;;;;;16.77;2.70;;;;;;;10.16;100.00;102305.50;5031685;28;20036;-70
2024/02/19 00:54:59;;;;;;;16.98;2.97;;;;;;;10.18;100.00;102316.38;5056552;28;20029;-70
2024/02/19 00:57:25;;;;;;;18.00;2.70;;;;;;;10.13;100.00;102316.25;5048985;28;20477;-70
2024/02/19 00:59:50;;;;;;;15.45;2.75;;;;;;;10.17;100.00;102318.31;5057136;28;20037;-71
2024/02/19 01:02:16;;;;;;;20.63;3.03;;;;;;;10.18;100.00;102316.38;5057122;28;20029;-70
2024/02/19 01:04:41;;;;;;;22.88;3.15;;;;;;;10.18;100.00;102319.97;5018559;28;20028;-70
2024/02/19 01:07:07;;;;;;;17.40;2.88;;;;;;;10.18;100.00;102316.38;5038925;28;20028;-70
2024/02/19 01:09:32;;;;;;;14.57;2.65;;;;;;;10.17;100.00;102312.75;5039280;28;20041;-70
2024/02/19 01:11:58;;;;;;;20.35;2.80;;;;;;;10.17;100.00;102323.00;5055774;28;20067;-70
2024/02/19 01:14:23;;;;;;;19.13;3.30;;;;;;;10.18;100.00;102316.38;5038431;28;20037;-70
2024/02/19 01:16:49;;;;;;;22.02;2.80;;;;;;;10.14;100.00;102316.03;5056816;28;20542;-71
2024/02/19 01:19:14;;;;;;;24.58;2.72;;;;;;;10.17;100.00;102314.66;5056967;28;20036;-70
2024/02/19 01:21:40;;;;;;;22.83;4.03;;;;;;;10.17;100.00;102323.88;5031930;28;20520;-70
2024/02/19 01:24:06;;;;;;;23.35;3.67;;;;;;;10.19;100.00;102323.59;5043893;28;20025;-71
2024/02/19 01:26:31;;;;;;;26.63;3.35;;;;;;;10.13;100.00;102324.59;5048489;28;20032;-70
2024/02/19 01:28:57;;;;;;;22.00;3.05;;;;;;;10.19;100.00;102329.16;5055461;28;20112;-70
2024/02/19 01:31:22;;;;;;;24.52;3.22;;;;;;;10.15;100.00;102325.19;5048972;28;20033;-70
2024/02/19 01:33:48;;;;;;;21.92;3.17;;;;;;;10.15;100.00;102322.41;5039025;28;20148;-70
2024/02/19 01:36:13;;;;;;;27.77;4.00;;;;;;;10.16;100.00;102321.31;5049514;28;20604;-70
2024/02/19 01:38:41;;;;;;;19.08;2.90;;;;;;;10.12;100.00;102311.81;5035606;28;20029;-70
2024/02/19 01:41:06;;;;;;;23.73;4.13;;;;;;;10.11;100.00;102312.88;5034121;28;20028;-70
2024/02/19 01:43:32;;;;;;;22.38;3.25;;;;;;;10.11;100.00;102299.84;5037922;28;20025;-70
2024/02/19 01:45:57;;;;;;;24.50;3.65;;;;;;;10.14;100.00;102301.28;5047843;28;20029;-70
2024/02/19 01:48:23;;;;;;;26.00;3.08;;;;;;;10.15;100.00;102303.81;5038642;28;20049;-70
2024/02/19 01:50:48;;;;;;;24.95;3.00;;;;;;;10.12;100.00;102296.00;5038941;28;20102;-70
2024/02/19 01:53:14;;;;;;;22.17;2.95;;;;;;;10.12;100.00;102301.53;5054985;28;20040;-71
2024/02/19 01:55:39;;;;;;;24.70;3.63;;;;;;;10.12;100.00;102301.53;5038725;28;20033;-70
2024/02/19 01:58:06;;;;;;;27.42;3.53;;;;;;;10.14;100.00;102298.50;5024819;28;20055;-70
2024/02/19 02:00:31;;;;;;;25.63;3.72;;;;;;;10.11;100.00;102299.00;5053648;28;20037;-70
2024/02/19 02:02:57;;;;;;;24.45;3.15;;;;;;;10.08;100.00;102303.13;5037084;28;20036;-70
2024/02/19 02:05:23;;;;;;;17.83;3.42;;;;;;;10.11;100.00;102299.84;5021766;28;20017;-70
2024/02/19 02:07:48;;;;;;;35.78;4.13;;;;;;;10.10;100.00;102294.56;5021597;28;20060;-70
2024/02/19 02:10:14;;;;;;;26.25;3.08;;;;;;;10.04;100.00;102296.38;5054948;28;20036;-70
2024/02/19 02:12:39;;;;;;;20.77;3.83;;;;;;;10.04;100.00;102304.72;5037930;28;20032;-70
2024/02/19 02:15:05;;;;;;;28.77;3.65;;;;;;;10.04;100.00;102304.72;5021190;28;20501;-70
2024/02/19 02:17:31;;;;;;;26.00;3.28;;;;;;;10.01;100.00;102306.03;5021349;28;20166;-70
2024/02/19 02:19:56;;;;;;;21.90;3.00;;;;;;;9.98;100.00;102300.16;5054516;28;20033;-70
2024/02/19 02:22:22;;;;;;;24.00;2.95;;;;;;;9.98;100.00;102306.53;5037733;28;20029;-70
2024/02/19 02:24:47;;;;;;;27.38;3.08;;;;;;;9.95;100.00;102301.50;5021208;28;20034;-70
2024/02/19 02:27:13;;;;;;;25.58;3.10;;;;;;;9.97;100.00;102293.75;5038135;28;20497;-70
2024/02/19 02:29:39;;;;;;;29.95;2.97;;;;;;;9.95;100.00;102295.09;5020922;28;20071;-70
2024/02/19 02:32:05;;;;;;;24.23;3.22;;;;;;;9.91;100.00;102289.19;5021680;28;20043;-70
2024/02/19 02:34:30;;;;;;;17.13;3.25;;;;;;;9.93;100.00;102286.16;5054256;28;20029;-70
2024/02/19 02:36:58;;;;;;;21.25;3.05;;;;;;;9.96;100.00;102297.59;5037805;28;20083;-70
2024/02/19 02:39:24;;;;;;;28.45;3.78;;;;;;;9.95;100.00;102300.66;5038099;28;20688;-70
2024/02/19 02:41:49;;;;;;;20.27;3.60;;;;;;;9.94;100.00;102298.94;5021274;28;20033;-70
2024/02/19 02:44:15;;;;;;;17.45;3.42;;;;;;;9.95;100.00;102303.44;5053684;28;20029;-70
2024/02/19 02:46:41;;;;;;;20.42;2.42;;;;;;;9.96;100.00;102308.72;5021175;28;20064;-70
2024/02/19 02:49:06;;;;;;;15.88;2.72;;;;;;;9.93;100.00;102300.88;5045302;28;20075;-70
2024/02/19 02:51:32;;;;;;;18.85;3.45;;;;;;;9.97;100.00;102302.09;5055224;28;20040;-70
2024/02/19 02:53:57;;;;;;;17.95;3.05;;;;;;;9.95;100.00;102301.50;5030123;28;20044;-70
2024/02/19 02:56:23;;;;;;;24.02;2.90;;;;;;;9.90;100.00;102295.81;5039192;28;20036;-71
2024/02/19 02:58:49;;;;;;;19.20;3.25;;;;;;;9.91;100.00;102293.88;5053673;28;20385;-70
2024/02/19 03:01:17;;;;;;;32.30;4.25;;;;;;;9.91;100.00;102294.72;5053906;28;20036;-70
2024/02/19 03:03:42;;;;;;;23.48;3.60;;;;;;;9.92;100.00;102295.56;5026995;28;20029;-71
2024/02/19 03:06:08;;;;;;;34.72;4.10;;;;;;;9.90;100.00;102290.28;5053823;28;20557;-70
2024/02/19 03:08:33;;;;;;;25.77;3.60;;;;;;;9.88;100.00;102284.13;5026326;28;20033;-70
2024/02/19 03:10:59;;;;;;;25.27;3.55;;;;;;;9.83;100.00;102282.09;5025914;28;20029;-71
2024/02/19 03:13:25;;;;;;;25.20;3.15;;;;;;;9.87;100.00;102285.22;5042286;28;20036;-70
2024/02/19 03:15:50;;;;;;;29.75;4.38;;;;;;;9.90;100.00;102281.13;5026015;28;20029;-70
2024/02/19 03:18:16;;;;;;;19.02;2.83;;;;;;;9.89;100.00;102271.94;5059756;28;20032;-70
2024/02/19 03:20:41;;;;;;;26.30;3.08;;;;;;;9.87;100.00;102268.56;5017548;28;20433;-70
2024/02/19 03:23:07;;;;;;;17.25;2.80;;;;;;;9.89;100.00;102269.19;5036777;28;20032;-70
2024/02/19 03:25:32;;;;;;;30.65;3.63;;;;;;;9.81;100.00;102262.06;5036808;28;20719;-70
2024/02/19 03:27:58;;;;;;;24.60;3.65;;;;;;;9.78;100.00;102259.78;5036755;28;20032;-70
2024/02/19 03:30:23;;;;;;;26.92;2.83;;;;;;;9.79;100.00;102261.47;5036894;28;20036;-70
2024/02/19 03:32:49;;;;;;;23.60;3.35;;;;;;;9.79;100.00;102246.75;5047757;28;20041;-70
2024/02/19 03:35:14;;;;;;;19.17;3.08;;;;;;;9.82;100.00;102251.81;5034075;28;20449;-70
2024/02/19 03:37:40;;;;;;;29.30;3.58;;;;;;;9.80;100.00;102248.44;5052066;28;20033;-70
2024/02/19 03:40:07;;;;;;;17.75;2.88;;;;;;;9.77;100.00;102247.00;5053466;28;20025;-70
2024/02/19 03:42:33;;;;;;;32.03;3.45;;;;;;;9.76;100.00;102253.63;5032114;28;20028;-70
2024/02/19 03:44:59;;;;;;;17.38;2.78;;;;;;;9.73;100.00;102256.06;5019723;28;20029;-70
2024/02/19 03:47:25;;;;;;;22.13;2.92;;;;;;;9.75;100.00;102251.97;5048054;28;20127;-71
2024/02/19 03:49:50;;;;;;;22.85;3.17;;;;;;;9.77;100.00;102249.75;5056486;28;20028;-70
2024/02/19 03:52:17;;;;;;;16.40;3.42;;;;;;;9.74;100.00;102244.72;5089501;28;20392;-70
2024/02/19 03:54:42;;;;;;;22.23;3.13;;;;;;;9.72;100.00;102251.59;5084737;28;20111;-70
2024/02/19 03:57:09;;;;;;;19.92;2.78;;;;;;;9.73;100.00;102256.06;5051640;28;20058;-71
2024/02/19 03:59:34;;;;;;;20.05;3.15;;;;;;;9.73;100.00;102247.75;5056240;28;20032;-70
2024/02/19 04:02:00;;;;;;;17.80;2.95;;;;;;;9.73;100.00;102247.75;5062146;28;20101;-70
2024/02/19 04:04:26;;;;;;;21.20;3.55;;;;;;;9.72;100.00;102246.03;5057243;28;20538;-70
2024/02/19 04:06:51;;;;;;;19.17;2.88;;;;;;;9.74;100.00;102246.66;5063418;28;20084;-70
2024/02/19 04:09:17;;;;;;;26.10;3.38;;;;;;;9.72;100.00;102251.59;5066257;28;20035;-70
2024/02/19 04:11:42;;;;;;;24.55;3.78;;;;;;;9.73;100.00;102242.19;5049241;28;20035;-70
2024/02/19 04:14:08;;;;;;;22.63;3.60;;;;;;;9.70;100.00;102254.63;5053514;28;20675;-70
2024/02/19 04:16:33;;;;;;;22.63;2.83;;;;;;;9.72;100.00;102260.78;5082499;28;20552;-70
2024/02/19 04:18:59;;;;;;;24.58;3.10;;;;;;;9.68;100.00;102265.13;5063590;28;20043;-70
2024/02/19 04:21:24;;;;;;;24.60;3.35;;;;;;;9.65;100.00;102273.94;5071464;28;20058;-70
2024/02/19 04:23:50;;;;;;;20.98;3.05;;;;;;;9.65;100.00;102264.78;5080044;28;20039;-70
2024/02/19 04:26:15;;;;;;;22.77;3.90;;;;;;;9.67;100.00;102279.22;5071219;28;20035;-70
2024/02/19 04:28:41;;;;;;;24.20;2.83;;;;;;;9.62;100.00;102285.53;5065714;28;20032;-70
2024/02/19 04:31:06;;;;;;;27.25;2.63;;;;;;;9.59;100.00;102281.31;5082395;28;20389;-70
2024/02/19 04:33:32;;;;;;;21.73;2.97;;;;;;;9.60;100.00;102288.53;5048870;28;20049;-70
2024/02/19 04:35:57;;;;;;;31.63;3.90;;;;;;;9.57;100.00;102293.72;5049013;28;20055;-70
2024/02/19 04:38:23;;;;;;;21.20;2.90;;;;;;;9.60;100.00;102298.78;5067719;28;20024;-70
2024/02/19 04:40:48;;;;;;;24.10;3.75;;;;;;;9.55;100.00;102302.28;5070968;28;20024;-70
2024/02/19 04:43:14;;;;;;;25.27;2.88;;;;;;;9.54;100.00;102306.16;5061610;28;20025;-70
2024/02/19 04:45:39;;;;;;;22.05;2.97;;;;;;;9.57;100.00;102310.38;5047879;28;20028;-70
2024/02/19 04:48:05;;;;;;;25.33;2.90;;;;;;;9.54;100.00;102311.69;5072275;28;20669;-70
2024/02/19 04:50:30;;;;;;;22.50;3.28;;;;;;;9.52;100.00;102316.63;5045137;28;20060;-70
2024/02/19 04:52:56;;;;;;;17.65;2.42;;;;;;;9.52;100.00;102310.25;5043588;28;20040;-70
2024/02/19 04:55:21;;;;;;;20.15;2.72;;;;;;;9.55;100.00;102313.38;5057458;28;20033;-70
2024/02/19 04:57:47;;;;;;;25.65;3.42;;;;;;;9.50;100.00;102310.53;5056369;28;20029;-70
2024/02/19 05:00:13;;;;;;;25.17;3.17;;;;;;;9.47;100.00;102313.78;5027377;28;20486;-70
2024/02/19 05:02:38;;;;;;;28.38;4.20;;;;;;;9.45;100.00;102315.94;5018416;28;20083;-70
2024/02/19 05:05:04;;;;;;;23.80;3.45;;;;;;;9.47;100.00;102319.31;5034867;28;20048;-70
2024/02/19 05:07:30;;;;;;;22.80;3.85;;;;;;;9.47;100.00;102302.69;5056155;28;20053;-70
2024/02/19 05:09:55;;;;;;;26.88;3.33;;;;;;;9.45;100.00;102299.31;5061178;28;20066;-70
2024/02/19 05:12:21;;;;;;;19.27;2.85;;;;;;;9.44;100.00;102296.75;5039165;28;20497;-70
2024/02/19 05:14:46;;;;;;;23.20;2.85;;;;;;;9.43;100.00;102295.09;5044090;28;20033;-70
2024/02/19 05:17:11;;;;;;;22.25;2.92;;;;;;;9.46;100.00;102300.97;5027796;28;20554;-70
2024/02/19 05:19:37;;;;;;;21.48;3.33;;;;;;;9.43;100.00;102308.94;5026026;28;20190;-70
2024/02/19 05:22:03;;;;;;;18.65;2.88;;;;;;;9.44;100.00;102318.94;5056085;28;20037;-70
2024/02/19 05:24:28;;;;;;;19.98;3.63;;;;;;;9.40;100.00;102310.28;5039396;28;20025;-70
2024/02/19 05:26:54;;;;;;;19.45;2.63;;;;;;;9.43;100.00;102304.25;5036002;28;20033;-70
2024/02/19 05:29:19;;;;;;;18.10;2.67;;;;;;;9.44;100.00;102296.75;5021900;28;20674;-70
2024/02/19 05:31:45;;;;;;;26.63;3.10;;;;;;;9.40;100.00;102313.88;5010779;28;20025;-70
2024/02/19 05:34:10;;;;;;;24.27;3.15;;;;;;;9.36;100.00;102311.81;5021747;28;20033;-70
2024/02/19 05:36:36;;;;;;;18.95;3.03;;;;;;;9.36;100.00;102317.38;5055703;28;20028;-70
2024/02/19 05:39:02;;;;;;;18.08;2.60;;;;;;;9.36;100.00;102314.59;5026254;28;20041;-70
2024/02/19 05:41:27;;;;;;;21.92;3.38;;;;;;;9.35;100.00;102313.75;5002627;28;20026;-70
2024/02/19 05:43:53;;;;;;;26.00;3.33;;;;;;;9.35;100.00;102307.38;5022138;28;20074;-70
2024/02/19 05:46:19;;;;;;;20.92;3.08;;;;;;;9.36;100.00;102309.94;5048629;28;20025;-70
2024/02/19 05:48:44;;;;;;;20.02;2.75;;;;;;;9.37;100.00;102310.75;5025783;28;20056;-70
2024/02/19 05:51:13;;;;;;;19.33;2.65;;;;;;;9.39;100.00;102308.59;5037832;28;20033;-70
2024/02/19 05:53:38;;;;;;;26.98;3.30;;;;;;;9.37;100.00;102302.44;5048564;28;20040;-70
2024/02/19 05:56:04;;;;;;;19.55;2.83;;;;;;;9.39;100.00;102287.25;5038298;28;20029;-70
2024/02/19 05:58:30;;;;;;;21.00;2.83;;;;;;;9.37;100.00;102285.81;5043255;28;20056;-71
2024/02/19 06:00:56;;;;;;;21.42;2.50;;;;;;;9.38;100.00;102285.53;5042840;28;20025;-70
2024/02/19 06:03:22;;;;;;;17.45;2.38;;;;;;;9.35;100.00;102299.91;5036631;28;20104;-71
2024/02/19 06:05:47;;;;;;;25.88;2.95;;;;;;;9.32;100.00;102299.56;5038214;28;20448;-70
2024/02/19 06:08:13;;;;;;;20.23;2.63;;;;;;;9.35;100.00;102301.84;5042296;28;20029;-70
2024/02/19 06:10:38;;;;;;;20.13;2.75;;;;;;;9.34;100.00;102294.63;5054769;28;20754;-71
2024/02/19 06:13:04;;;;;;;17.90;2.85;;;;;;;9.31;100.00;102295.94;5040280;28;20039;-70
2024/02/19 06:15:29;;;;;;;14.77;2.20;;;;;;;9.32;100.00;102291.22;5040902;28;20048;-70
2024/02/19 06:17:55;;;;;;;15.20;2.38;;;;;;;9.33;100.00;102298.44;5043248;28;20034;-70
2024/02/19 06:20:20;;;;;;;12.50;2.20;;;;;;;9.36;100.00;102292.41;5034860;28;20033;-71
2024/02/19 06:22:46;;;;;;;15.00;2.60;;;;;;;9.33;100.00;102291.00;5039368;28;20562;-70
2024/02/19 06:25:12;;;;;;;15.68;2.20;;;;;;;9.35;100.00;102279.66;5040877;28;20474;-70
2024/02/19 06:27:37;;;;;;;14.50;1.90;;;;;;;9.33;100.00;102290.13;5043434;28;20044;-70
2024/02/19 06:30:04;;;;;;;15.68;2.30;;;;;;;9.37;100.00;102294.13;5037230;28;20029;-71
2024/02/19 06:32:29;;;;;;;10.07;2.20;;;;;;;9.33;100.00;102302.09;5043593;28;20108;-71
2024/02/19 06:34:55;;;;;;;10.85;1.90;;;;;;;9.37;100.00;102289.41;5055636;28;20029;-70
2024/02/19 06:37:20;;;;;;;13.88;2.08;;;;;;;9.38;100.00;102281.94;5054570;28;20186;-70
2024/02/19 06:39:46;;;;;;;15.48;2.13;;;;;;;9.35;100.00;102285.19;5038190;28;20086;-70
2024/02/19 06:42:11;;;;;;;10.00;2.15;;;;;;;9.35;100.00;102285.19;5052914;28;20052;-70
2024/02/19 06:44:37;;;;;;;14.80;2.70;;;;;;;9.33;100.00;102281.81;5026777;28;20083;-70
2024/02/19 06:47:02;;;;;;;13.30;2.15;;;;;;;9.33;100.00;102270.72;5048246;28;20036;-70
2024/02/19 06:49:28;;;;;;;14.80;2.60;;;;;;;9.33;100.00;102271.59;5073009;28;20052;-70
2024/02/19 06:51:53;;;;;;;14.18;2.25;;;;;;;9.32;100.00;102263.50;5056407;28;20048;-70
2024/02/19 06:54:18;;;;;;;12.45;1.83;;;;;;;9.32;100.00;102253.25;5052936;28;20028;-70
2024/02/19 06:56:44;;;;;;;9.15;1.67;;;;;;;9.32;100.00;102252.41;5040610;28;20032;-70
2024/02/19 06:59:09;;;;;;;9.43;1.70;;;;;;;9.32;100.00;102274.59;5057091;28;20508;-70
2024/02/19 07:01:35;;;;;;;7.35;1.75;;;;;;;9.28;100.00;102290.03;5057214;28;20025;-70
2024/02/19 07:04:01;;;;;;;9.52;1.70;;;;;;;9.28;100.00;102301.13;5073818;28;20653;-70
2024/02/19 07:06:27;;;;;;;13.57;1.83;;;;;;;9.26;100.00;102306.06;5056983;28;20024;-70
2024/02/19 07:08:52;;;;;;;10.63;1.58;;;;;;;9.24;100.00;102319.31;5040484;28;20028;-70
2024/02/19 07:11:18;;;;;;;16.63;2.65;;;;;;;9.21;100.00;102333.66;5073847;28;20025;-70
2024/02/19 07:13:43;;;;;;;17.38;2.13;;;;;;;9.10;100.00;102327.88;5056641;28;20036;-70
2024/02/19 07:16:09;;;;;;;7.22;1.73;;;;;;;9.12;100.00;102336.78;5073645;28;20063;-70
2024/02/19 07:18:34;;;;;;;14.30;2.75;;;;;;;9.12;100.00;102349.81;5057026;28;20048;-70
2024/02/19 07:21:00;;;;;;;11.82;2.05;;;;;;;9.06;100.00;102354.38;5073872;28;20443;-71
2024/02/19 07:23:25;;;;;;;9.65;1.80;;;;;;;9.12;100.00;102342.34;5055081;28;20607;-70
2024/02/19 07:25:51;;;;;;;16.20;2.17;;;;;;;9.10;100.00;102336.19;5073078;28;20020;-70
2024/02/19 07:28:16;;;;;;;9.90;2.20;;;;;;;9.14;100.00;102337.41;5074540;28;20036;-70
2024/02/19 07:30:42;;;;;;;10.55;1.98;;;;;;;9.09;100.00;102337.28;5074592;28;20028;-70
2024/02/19 07:33:07;;;;;;;10.75;1.70;;;;;;;9.13;100.00;102340.41;5056752;28;20043;-70
2024/02/19 07:35:33;;;;;;;9.10;1.88;;;;;;;9.15;100.00;102346.56;5040102;28;20025;-70
2024/02/19 07:37:58;;;;;;;12.95;2.10;;;;;;;9.14;100.00;102356.81;5056698;28;20240;-70
2024/02/19 07:40:24;;;;;;;10.68;2.67;;;;;;;9.14;100.00;102353.19;5073415;28;20032;-70
2024/02/19 07:42:49;;;;;;;16.77;2.25;;;;;;;9.13;100.00;102355.09;5072318;28;20029;-70
2024/02/19 07:45:15;;;;;;;8.13;1.45;;;;;;;9.15;100.00;102358.50;5065980;28;20028;-70
2024/02/19 07:47:40;;;;;;;7.85;1.58;;;;;;;9.21;100.00;102350.31;5077783;28;20056;-70
2024/02/19 07:50:06;;;;;;;10.00;1.80;;;;;;;9.20;100.00;102351.41;5064082;28;20039;-70
2024/02/19 07:52:32;;;;;;;12.23;1.50;;;;;;;9.20;100.00;102345.84;5040113;28;20029;-70
2024/02/19 07:54:57;;;;;;;8.50;1.80;;;;;;;9.22;100.00;102347.31;5047286;28;20029;-71
2024/02/19 07:57:23;;;;;;;8.43;1.73;;;;;;;9.27;100.00;102343.78;5094077;28;20032;-70
2024/02/19 07:59:48;;;;;;;9.23;1.98;;;;;;;9.28;100.00;102351.88;5083710;28;20043;-70
2024/02/19 08:02:14;;;;;;;12.90;2.00;;;;;;;9.29;100.00;102353.56;5051333;28;20032;-70
2024/02/19 08:04:39;;;;;;;9.48;1.48;;;;;;;9.31;100.00;102364.41;5063867;28;20052;-70
2024/02/19 08:07:05;;;;;;;10.32;2.33;;;;;;;9.34;100.00;102372.25;5076074;28;20032;-70
2024/02/19 08:09:30;;;;;;;12.02;1.92;;;;;;;9.32;100.00;102374.41;5067164;28;20085;-70
2024/02/19 08:11:57;;;;;;;12.38;1.95;;;;;;;9.32;100.00;102358.63;5076688;28;20032;-70
2024/02/19 08:14:24;;;;;;;13.85;1.90;;;;;;;9.38;100.00;102363.19;5083595;28;20029;-70
2024/02/19 08:16:50;;;;;;;10.65;1.85;;;;;;;9.38;100.00;102362.34;5057713;28;20104;-70
2024/02/19 08:19:16;;;;;;;11.40;1.75;;;;;;;9.39;100.00;102384.31;5063165;28;20028;-70
2024/02/19 08:21:42;;;;;;;13.98;2.00;;;;;;;9.40;100.00;102387.94;5078860;28;20661;-70
2024/02/19 08:24:10;;;;;;;15.80;2.72;;;;;;;9.43;100.00;102381.91;5081275;28;20093;-70
2024/02/19 08:26:36;;;;;;;13.38;2.45;;;;;;;9.44;100.00;102389.13;5041619;28;20036;-70
2024/02/19 08:29:01;;;;;;;14.57;2.72;;;;;;;9.49;100.00;102392.03;5087302;28;20031;-70
2024/02/19 08:31:27;;;;;;;15.52;2.38;;;;;;;9.47;100.00;102393.34;5059096;28;20028;-70
2024/02/19 08:33:56;;;;;;;8.93;2.50;;;;;;;9.51;100.00;102400.09;5044962;28;20594;-70
2024/02/19 08:36:22;;;;;;;10.88;2.22;;;;;;;9.51;100.00;102402.88;5058638;28;20037;-70
2024/02/19 08:38:52;;;;;;;13.77;2.47;;;;;;;9.54;100.00;102394.91;5064530;28;20039;-71
2024/02/19 08:41:18;;;;;;;12.00;2.58;;;;;;;9.57;100.00;102391.66;5063973;28;20036;-70
2024/02/19 08:43:44;;;;;;;15.55;2.75;;;;;;;9.58;100.00;102398.91;5062143;28;20036;-70
2024/02/19 08:46:10;;;;;;;19.35;2.90;;;;;;;9.57;100.00;102388.88;5036542;28;20035;-70
2024/02/19 08:48:35;;;;;;;16.98;2.85;;;;;;;9.59;100.00;102392.28;5046146;28;20074;-70
2024/02/19 08:51:01;;;;;;;12.48;2.92;;;;;;;9.63;100.00;102399.00;5075968;28;20032;-70
2024/02/19 08:53:28;;;;;;;11.52;2.55;;;;;;;9.65;100.00;102393.22;5082302;28;20032;-70
2024/02/19 08:55:54;;;;;;;17.05;2.47;;;;;;;9.69;100.00;102388.03;5071426;28;20029;-70
2024/02/19 08:58:19;;;;;;;11.55;2.33;;;;;;;9.71;100.00;102385.88;5066495;28;20028;-70
2024/02/19 09:00:45;;;;;;;18.08;3.35;;;;;;;9.75;100.00;102384.28;5062858;28;20442;-70
2024/02/19 09:03:10;;;;;;;16.48;2.67;;;;;;;9.80;100.00;102387.19;5066232;28;20029;-70
2024/02/19 09:05:37;;;;;;;16.77;2.72;;;;;;;9.85;100.00;102392.84;5079550;28;20024;-70
2024/02/19 09:08:03;;;;;;;12.18;3.00;;;;;;;9.85;100.00;102393.69;5097708;28;20384;-70
2024/02/19 09:10:28;;;;;;;13.15;2.88;;;;;;;9.89;100.00;102396.84;5045448;28;20024;-70
2024/02/19 09:12:54;;;;;;;11.77;2.30;;;;;;;9.92;100.00;102404.66;5064067;28;20029;-70
2024/02/19 09:15:19;;;;;;;12.50;2.83;;;;;;;9.94;100.00;102401.63;5062768;28;20528;-70
2024/02/19 09:17:45;;;;;;;14.70;3.72;;;;;;;9.98;100.00;102417.56;5061778;28;20039;-70
2024/02/19 09:20:11;;;;;;;12.45;2.78;;;;;;;10.03;100.00;102411.28;5046228;28;20111;-70
2024/02/19 09:22:37;;;;;;;18.23;3.20;;;;;;;10.07;100.00;102405.00;5080083;28;20035;-70
2024/02/19 09:25:03;;;;;;;14.73;2.50;;;;;;;10.10;100.00;102409.22;5067582;28;20036;-71
2024/02/19 09:27:29;;;;;;;15.05;2.90;;;;;;;10.10;100.00;102405.59;5083504;28;20523;-70
2024/02/19 09:29:56;;;;;;;15.35;3.03;;;;;;;10.18;100.00;102408.84;5057593;28;20028;-71
2024/02/19 09:32:22;;;;;;;10.73;2.10;;;;;;;10.22;100.00;102407.28;5041251;28;20713;-71
2024/02/19 09:34:48;;;;;;;12.27;2.13;;;;;;;10.26;100.00;102402.06;5078985;28;20024;-70
2024/02/19 09:37:13;;;;;;;12.95;2.70;;;;;;;10.33;100.00;102401.94;5065687;28;20503;-70
2024/02/19 09:39:39;;;;;;;16.80;2.03;;;;;;;10.36;100.00;102382.00;5070975;28;20039;-70
2024/02/19 09:42:06;;;;;;;15.25;2.50;;;;;;;10.44;100.00;102376.88;5057343;28;20067;-70
2024/02/19 09:44:32;;;;;;;12.43;2.67;;;;;;;10.49;100.00;102365.88;5050820;28;20031;-71
2024/02/19 09:47:00;;;;;;;10.90;2.30;;;;;;;10.55;100.00;102374.31;5072147;28;20028;-70
2024/02/19 09:49:28;;;;;;;9.30;2.60;;;;;;;10.60;100.00;102375.25;5061735;28;20044;-70
2024/02/19 09:51:55;;;;;;;16.65;2.78;;;;;;;10.67;100.00;102372.31;5066162;28;20063;-71
2024/02/19 09:54:21;;;;;;;14.05;2.60;;;;;;;10.76;100.00;102372.78;5072305;28;20028;-70
2024/02/19 09:56:50;;;;;;;9.98;2.00;;;;;;;10.81;100.00;102375.63;5060114;28;20504;-70
2024/02/19 09:59:16;;;;;;;11.98;2.33;;;;;;;10.84;100.00;102375.16;5045846;28;20077;-71
2024/02/19 10:01:41;;;;;;;12.13;2.58;;;;;;;10.88;100.00;102366.03;5048513;28;20028;-70
2024/02/19 10:04:07;;;;;;;11.38;2.33;;;;;;;10.94;100.00;102362.25;5061406;28;20024;-70
2024/02/19 10:06:34;;;;;;;16.10;2.45;;;;;;;11.00;100.00;102348.44;5048595;28;20025;-70
2024/02/19 10:09:06;;;;;;;10.85;2.33;;;;;;;11.05;100.00;102342.97;5062164;28;20035;-71
2024/02/19 10:11:33;;;;;;;17.35;2.83;;;;;;;11.09;100.00;102355.28;5067245;28;20020;-70
2024/02/19 10:13:58;;;;;;;12.23;2.33;;;;;;;11.14;100.00;102355.34;5061074;28;20028;-70
2024/02/19 10:16:24;;;;;;;10.90;2.10;;;;;;;11.21;100.00;102358.81;5065049;28;20524;-71
2024/02/19 10:18:52;;;;;;;13.32;2.50;;;;;;;11.25;100.00;102367.50;5069647;28;20020;-70
2024/02/19 10:21:18;;;;;;;8.93;2.13;;;;;;;11.32;100.00;102366.22;5072109;28;20032;-71
2024/02/19 10:23:46;;;;;;;13.10;2.22;;;;;;;11.40;100.00;102370.53;5063804;28;20053;-71
2024/02/19 10:26:12;;;;;;;8.57;1.98;;;;;;;11.48;100.00;102374.81;5092354;28;20059;-70
2024/02/19 10:28:39;;;;;;;16.08;2.40;;;;;;;11.53;100.00;102375.75;5094098;28;20099;-70
2024/02/19 10:31:05;;;;;;;18.45;2.60;;;;;;;11.59;100.00;102387.81;5054404;28;20028;-70
2024/02/19 10:33:35;;;;;;;11.85;2.60;;;;;;;11.66;100.00;102394.00;5064268;28;20097;-71
2024/02/19 10:36:02;;;;;;;9.25;1.98;;;;;;;11.74;100.00;102398.31;5047407;28;20039;-70
2024/02/19 10:38:28;;;;;;;13.38;2.58;;;;;;;11.80;100.00;102406.47;5049751;28;20029;-70
2024/02/19 10:40:54;;;;;;;12.20;2.40;;;;;;;11.84;100.00;102388.16;5075618;28;20020;-70
2024/02/19 10:43:20;;;;;;;11.80;2.17;;;;;;;11.92;100.00;102386.06;5048614;28;20024;-70
2024/02/19 10:45:47;;;;;;;12.63;2.05;;;;;;;11.99;100.00;102381.16;5042031;28;20572;-70
2024/02/19 10:48:13;;;;;;;9.95;1.85;;;;;;;12.06;100.00;102387.34;5065228;28;20052;-70
2024/02/19 10:50:38;;;;;;;11.90;1.90;;;;;;;12.13;100.00;102381.59;5035692;28;20028;-70
2024/02/19 10:53:05;;;;;;;10.18;2.10;;;;;;;12.22;100.00;102380.03;5075993;28;20031;-70
2024/02/19 10:55:34;;;;;;;11.23;2.08;;;;;;;12.29;100.00;102383.50;5075186;28;20028;-70
2024/02/19 10:58:00;;;;;;;9.15;1.58;;;;;;;12.38;100.00;102378.28;5081005;28;20020;-70
2024/02/19 11:00:27;;;;;;;10.88;1.90;;;;;;;12.47;100.00;102366.41;5062680;28;20035;-70
2024/02/19 11:03:09;;;;;;;13.48;1.98;;;;;;;12.59;100.00;102365.41;5055500;28;20028;-70
2024/02/19 11:05:38;;;;;;;13.18;1.67;;;;;;;12.67;100.00;102374.13;5055714;28;20324;-70
2024/02/19 11:08:24;;;;;;;9.43;2.13;;;;;;;12.79;100.00;102376.78;5074174;28;20027;-70